White Earth, North Dakota
Current Conditions -  °F | °C
As of 4:15 AM on Sunday 26 Oct 2014 (Local Time) from KD60 Reporting Station
Clear Clear  
Wind Chill:   Ceiling: Unl
Heat Index:   Visibility: 10mi
Dew Point:   Wind: 14mph
Humidity: 54%   Direction: 130°SE
Pressure: 29.65"   Gusts: 23mph
Location:  48.38°N, 102.77°W
Report Text: KD60 260915Z AUTO 13012G20KT 10SM CLR 09/00 A2965 RMK AO2
Loading
Personal Weather Stations






























Interactive Weather Map
Tropical Storm Tracking
New forecast layout! Learn more

10-Day Weather Forecast

Advertisements
Track Severe Weather on mobile